Time;durP1;ratioP1;P1;durP2;ratioP2;P2;SDS_P1;SDS_P2;PMS_P1;PMS_P2;Temp;Humidity;BMP_temperature;BMP_pressure;BME280_temperature;BME280_humidity;BME280_pressure;Samples;Min_cycle;Max_cycle;Signal;HPM_P1;HPM_P2
2022/08/24 00:02:26;;;;;;;3.88;2.40;;;17.50;99.90;;;;;;5093484;28;20060;-78
2022/08/24 00:04:52;;;;;;;2.22;2.13;;;17.50;99.90;;;;;;5093878;28;20028;-79
2022/08/24 00:07:20;;;;;;;2.83;2.05;;;17.50;99.90;;;;;;5095769;28;20066;-79
2022/08/24 00:09:46;;;;;;;2.10;2.00;;;17.50;99.90;;;;;;5096066;28;20538;-78
2022/08/24 00:12:12;;;;;;;2.60;2.40;;;17.50;99.90;;;;;;5097193;28;20020;-79
2022/08/24 00:14:39;;;;;;;2.55;2.35;;;17.50;99.90;;;;;;5096076;28;20499;-79
2022/08/24 00:17:05;;;;;;;2.10;2.00;;;17.50;99.90;;;;;;5095900;28;20126;-79
2022/08/24 00:19:31;;;;;;;5.50;2.63;;;17.50;99.90;;;;;;5095851;28;20067;-79
2022/08/24 00:21:57;;;;;;;2.67;2.35;;;17.50;99.90;;;;;;5097057;28;20117;-78
2022/08/24 00:24:23;;;;;;;2.58;2.30;;;17.50;99.90;;;;;;5097104;28;20449;-79
2022/08/24 00:26:49;;;;;;;2.70;2.35;;;17.50;99.90;;;;;;5096942;28;20020;-79
2022/08/24 00:29:17;;;;;;;3.83;2.85;;;17.50;99.90;;;;;;5095690;28;20024;-79
2022/08/24 00:31:42;;;;;;;4.20;2.30;;;17.50;99.90;;;;;;5095339;28;20028;-78
2022/08/24 00:34:09;;;;;;;2.90;2.58;;;17.50;99.90;;;;;;5095508;28;20115;-79
2022/08/24 00:36:35;;;;;;;2.58;2.38;;;17.50;99.90;;;;;;5097017;28;20028;-79
2022/08/24 00:39:01;;;;;;;3.22;2.53;;;17.50;99.90;;;;;;5096565;28;20034;-79
2022/08/24 00:41:27;;;;;;;2.30;2.15;;;17.50;99.90;;;;;;5096882;28;20024;-79
2022/08/24 00:53:52;;;;;;;2.33;2.13;;;17.50;99.90;;;;;;5412818;22;20409;-80
2022/08/24 00:56:22;;;;;;;2.95;2.70;;;17.60;99.90;;;;;;5095243;28;20036;-80
2022/08/24 00:58:51;;;;;;;2.30;2.10;;;17.60;99.90;;;;;;5096314;28;20031;-79
2022/08/24 01:01:17;;;;;;;2.28;2.08;;;17.60;99.90;;;;;;5096151;28;20051;-79
2022/08/24 01:03:45;;;;;;;2.72;2.05;;;17.60;99.90;;;;;;5094965;28;20027;-79
2022/08/24 01:06:11;;;;;;;2.40;2.20;;;17.60;99.90;;;;;;5095819;28;20461;-79
2022/08/24 01:08:38;;;;;;;3.05;2.08;;;17.60;99.90;;;;;;5096181;28;20034;-79
2022/08/24 01:11:16;;;;;;;3.88;2.30;;;17.60;99.90;;;;;;5095199;28;20028;-79
2022/08/24 01:13:45;;;;;;;2.30;2.10;;;17.60;99.90;;;;;;5094772;28;20489;-79
2022/08/24 01:16:13;;;;;;;2.55;2.13;;;17.60;99.90;;;;;;5094399;28;20433;-79
2022/08/24 01:18:51;;;;;;;3.10;2.25;;;17.60;99.90;;;;;;5095954;28;20031;-79
2022/08/24 01:21:39;;;;;;;2.50;2.30;;;17.50;99.90;;;;;;5095423;28;20051;-80
2022/08/24 01:24:11;;;;;;;2.42;2.22;;;17.60;99.90;;;;;;5095089;28;20024;-79
2022/08/24 01:26:47;;;;;;;2.17;1.73;;;17.50;99.90;;;;;;5095003;28;20028;-80
2022/08/24 01:29:17;;;;;;;2.42;2.22;;;17.60;99.90;;;;;;5095689;28;20381;-80
2022/08/24 01:31:43;;;;;;;2.20;1.70;;;17.50;99.90;;;;;;5094444;28;20468;-80
2022/08/24 01:34:11;;;;;;;1.90;1.80;;;17.50;99.90;;;;;;5095302;28;20427;-80
2022/08/24 01:36:43;;;;;;;3.20;2.17;;;17.50;99.90;;;;;;5094439;28;20065;-80
2022/08/24 01:39:23;;;;;;;2.22;2.03;;;17.50;99.90;;;;;;5095592;28;20024;-80
2022/08/24 01:41:50;;;;;;;2.38;2.17;;;17.50;99.90;;;;;;5095799;28;20028;-80
2022/08/24 01:44:17;;;;;;;2.30;2.10;;;17.50;99.90;;;;;;5095379;28;20024;-80
2022/08/24 01:46:45;;;;;;;2.88;2.03;;;17.50;99.90;;;;;;5094064;28;20024;-79
2022/08/24 01:49:11;;;;;;;2.08;1.98;;;17.50;99.90;;;;;;5093950;28;20028;-80
2022/08/24 01:51:37;;;;;;;4.22;2.20;;;17.50;99.90;;;;;;5093997;28;20046;-79
2022/08/24 01:54:04;;;;;;;2.95;2.10;;;17.50;99.90;;;;;;5093719;28;20040;-80
2022/08/24 01:56:31;;;;;;;2.90;2.60;;;17.50;99.90;;;;;;5094254;28;20024;-80
2022/08/24 01:58:58;;;;;;;3.58;1.95;;;17.50;99.90;;;;;;5095116;28;20031;-80
2022/08/24 02:01:25;;;;;;;2.20;2.10;;;17.50;99.90;;;;;;5093852;28;20020;-79
2022/08/24 02:03:51;;;;;;;2.67;2.47;;;17.50;99.90;;;;;;5094177;28;20020;-80
2022/08/24 02:06:18;;;;;;;2.97;2.50;;;17.50;99.90;;;;;;5094697;28;20028;-80
2022/08/24 02:08:44;;;;;;;3.38;2.00;;;17.50;99.90;;;;;;5093541;28;20028;-80
2022/08/24 02:11:10;;;;;;;2.00;1.90;;;17.50;99.90;;;;;;5095186;28;20088;-80
2022/08/24 02:13:38;;;;;;;3.50;2.10;;;17.50;99.90;;;;;;5095000;28;20063;-80
2022/08/24 02:16:05;;;;;;;2.30;1.90;;;17.50;99.90;;;;;;5093443;28;20111;-80
2022/08/24 02:18:33;;;;;;;2.00;1.90;;;17.50;99.90;;;;;;5095019;28;20020;-80
2022/08/24 02:20:59;;;;;;;3.25;1.95;;;17.50;99.90;;;;;;5094781;28;20020;-80
2022/08/24 02:23:26;;;;;;;2.15;2.03;;;17.50;99.90;;;;;;5094714;28;20027;-80
2022/08/24 02:25:52;;;;;;;2.45;2.17;;;17.50;99.90;;;;;;5093079;28;20158;-80
2022/08/24 02:28:19;;;;;;;2.90;2.47;;;17.50;99.90;;;;;;5092836;28;20115;-80
2022/08/24 02:30:44;;;;;;;2.60;2.40;;;17.50;99.90;;;;;;5094529;28;20592;-80
2022/08/24 02:33:10;;;;;;;2.00;1.90;;;17.50;99.90;;;;;;5093315;28;20505;-80
2022/08/24 02:35:36;;;;;;;2.83;2.30;;;17.50;99.90;;;;;;5093092;28;20055;-80
2022/08/24 02:38:02;;;;;;;2.47;2.28;;;17.50;99.90;;;;;;5093211;28;20030;-80
2022/08/24 02:40:28;;;;;;;2.70;2.50;;;17.50;99.90;;;;;;5094269;28;20445;-80
2022/08/24 02:42:54;;;;;;;3.20;2.60;;;17.50;99.90;;;;;;5093014;28;20024;-80
2022/08/24 02:45:20;;;;;;;2.70;2.50;;;17.50;99.90;;;;;;5093399;28;20047;-80
2022/08/24 02:47:46;;;;;;;3.38;2.22;;;17.50;99.90;;;;;;5094021;28;20089;-80
2022/08/24 02:50:15;;;;;;;2.58;2.35;;;17.50;99.90;;;;;;5093972;28;20024;-80
2022/08/24 02:52:41;;;;;;;2.00;1.83;;;17.50;99.90;;;;;;5093843;28;20063;-80
2022/08/24 02:55:11;;;;;;;2.58;2.30;;;17.50;99.90;;;;;;5094401;28;20032;-80
2022/08/24 02:57:36;;;;;;;2.58;2.38;;;17.50;99.90;;;;;;5092888;28;20086;-80
2022/08/24 03:00:05;;;;;;;3.45;2.20;;;17.50;99.90;;;;;;5094076;28;20024;-80
2022/08/24 03:02:30;;;;;;;2.78;2.55;;;17.50;99.90;;;;;;5093298;28;20073;-80
2022/08/24 03:04:56;;;;;;;2.88;2.35;;;17.50;99.90;;;;;;5093989;28;20024;-80
2022/08/24 03:07:22;;;;;;;2.70;2.50;;;17.50;99.90;;;;;;5092789;28;20205;-80
2022/08/24 03:09:47;;;;;;;3.45;2.10;;;17.50;99.90;;;;;;5093854;28;20587;-80
2022/08/24 03:12:13;;;;;;;2.90;2.60;;;17.50;99.90;;;;;;5094401;28;20483;-81
2022/08/24 03:14:39;;;;;;;2.47;2.30;;;17.50;99.90;;;;;;5092632;28;20109;-80
2022/08/24 03:17:05;;;;;;;5.18;2.80;;;17.40;99.90;;;;;;5093226;28;20058;-80
2022/08/24 03:19:30;;;;;;;3.13;2.83;;;17.50;99.90;;;;;;5093888;28;20060;-80
2022/08/24 03:21:56;;;;;;;3.50;2.75;;;17.40;99.90;;;;;;5092701;28;20089;-80
2022/08/24 03:24:22;;;;;;;2.78;2.40;;;17.50;99.90;;;;;;5093846;28;20032;-80
2022/08/24 03:26:48;;;;;;;2.67;2.22;;;17.50;99.90;;;;;;5092788;28;20020;-80
2022/08/24 03:29:14;;;;;;;3.42;3.10;;;17.50;99.90;;;;;;5094043;28;20024;-80
2022/08/24 03:31:40;;;;;;;5.07;3.15;;;17.50;99.90;;;;;;5093788;28;20028;-80
2022/08/24 03:34:06;;;;;;;4.70;2.50;;;17.50;99.90;;;;;;5092663;28;20031;-80
2022/08/24 03:36:32;;;;;;;4.53;3.58;;;17.50;99.90;;;;;;5092393;28;20020;-80
2022/08/24 03:38:57;;;;;;;3.30;3.00;;;17.50;99.90;;;;;;5092411;28;20028;-80
2022/08/24 03:41:23;;;;;;;3.15;2.70;;;17.50;99.90;;;;;;5097670;28;20020;-80
2022/08/24 03:43:49;;;;;;;4.65;3.00;;;17.50;99.90;;;;;;5096694;28;20047;-80
2022/08/24 03:46:22;;;;;;;3.30;2.92;;;17.50;99.90;;;;;;5097435;28;20385;-80
2022/08/24 03:48:48;;;;;;;3.20;2.88;;;17.60;99.90;;;;;;5096572;28;20055;-80
2022/08/24 03:51:17;;;;;;;2.58;2.38;;;17.60;99.90;;;;;;5097655;28;20024;-80
2022/08/24 03:53:43;;;;;;;3.10;2.80;;;17.60;99.90;;;;;;5097327;28;20093;-80
2022/08/24 03:56:10;;;;;;;3.72;2.90;;;17.60;99.90;;;;;;5096210;28;20258;-80
2022/08/24 03:58:38;;;;;;;5.05;3.20;;;17.60;99.90;;;;;;5097445;28;20077;-80
2022/08/24 04:01:04;;;;;;;5.15;3.60;;;17.60;99.90;;;;;;5097458;28;20024;-80
2022/08/24 04:03:33;;;;;;;3.13;2.67;;;17.60;99.90;;;;;;5096211;28;20114;-81
2022/08/24 04:06:00;;;;;;;3.30;3.00;;;17.60;99.90;;;;;;5096109;28;20020;-80
2022/08/24 04:08:25;;;;;;;3.63;3.33;;;17.60;99.90;;;;;;5095625;28;20037;-80
2022/08/24 04:10:53;;;;;;;3.40;3.10;;;17.60;99.90;;;;;;5095861;28;20035;-81
2022/08/24 04:13:19;;;;;;;3.63;3.28;;;17.60;99.90;;;;;;5096328;28;20063;-80
2022/08/24 04:15:45;;;;;;;3.58;3.28;;;17.60;99.90;;;;;;5096831;28;20051;-80
2022/08/24 04:18:11;;;;;;;3.47;3.00;;;17.60;99.90;;;;;;5097236;28;20032;-79
2022/08/24 04:20:41;;;;;;;3.95;3.42;;;17.60;99.90;;;;;;5095757;28;20094;-80
2022/08/24 04:23:08;;;;;;;5.80;3.28;;;17.60;99.90;;;;;;5096990;28;20373;-81
2022/08/24 04:25:46;;;;;;;5.50;3.47;;;17.60;99.90;;;;;;5097134;28;20028;-79
2022/08/24 04:28:14;;;;;;;7.47;3.45;;;17.60;99.90;;;;;;5096844;28;20028;-77
2022/08/24 04:30:42;;;;;;;5.57;3.38;;;17.60;99.90;;;;;;5096537;28;20024;-78
2022/08/24 04:33:09;;;;;;;3.83;3.50;;;17.60;99.90;;;;;;5095506;28;20028;-77
2022/08/24 04:35:45;;;;;;;3.75;3.45;;;17.60;99.90;;;;;;5096662;28;20024;-77
2022/08/24 04:38:12;;;;;;;3.83;3.53;;;17.70;99.90;;;;;;5096917;28;20028;-76
2022/08/24 04:40:39;;;;;;;9.00;3.53;;;17.70;99.90;;;;;;5095263;28;20496;-79
2022/08/24 04:43:05;;;;;;;4.35;3.33;;;17.70;99.90;;;;;;5095256;28;20028;-77
2022/08/24 04:45:31;;;;;;;3.45;3.15;;;17.80;99.90;;;;;;5095272;28;20524;-78
2022/08/24 04:47:56;;;;;;;4.60;3.38;;;17.80;99.90;;;;;;5095073;28;20070;-82
2022/08/24 04:50:23;;;;;;;3.70;3.40;;;17.80;99.90;;;;;;5094963;28;20081;-77
2022/08/24 04:52:49;;;;;;;3.80;3.42;;;17.80;99.90;;;;;;5094813;28;20135;-79
2022/08/24 04:55:14;;;;;;;3.95;3.08;;;17.80;99.90;;;;;;5095102;28;20515;-78
2022/08/24 04:57:40;;;;;;;3.75;3.38;;;17.80;99.90;;;;;;5096201;28;20036;-79
2022/08/24 05:00:09;;;;;;;4.63;4.00;;;17.90;99.90;;;;;;5094914;28;20032;-80
2022/08/24 05:02:37;;;;;;;3.03;2.83;;;17.90;99.90;;;;;;5094758;28;20028;-59
2022/08/24 05:05:02;;;;;;;3.67;3.38;;;17.90;99.90;;;;;;5095977;28;20028;-58
2022/08/24 05:07:28;;;;;;;6.05;2.85;;;18.00;99.90;;;;;;5095633;28;20095;-58
2022/08/24 05:09:54;;;;;;;3.38;2.70;;;18.00;99.90;;;;;;5096594;28;20028;-58
2022/08/24 05:12:20;;;;;;;3.60;2.88;;;18.10;99.90;;;;;;5095866;28;20114;-59
2022/08/24 05:14:45;;;;;;;4.13;3.15;;;18.10;99.90;;;;;;5095860;28;20028;-59
2022/08/24 05:17:11;;;;;;;3.60;3.28;;;18.10;99.90;;;;;;5095962;28;20453;-59
2022/08/24 05:19:37;;;;;;;3.20;2.90;;;18.20;99.90;;;;;;5095746;28;20032;-59
2022/08/24 05:22:02;;;;;;;4.07;3.50;;;18.20;99.90;;;;;;5095634;28;20028;-59
2022/08/24 05:24:28;;;;;;;5.28;3.47;;;18.20;99.90;;;;;;5095679;28;20020;-59
2022/08/24 05:26:54;;;;;;;3.20;2.90;;;18.30;99.90;;;;;;5095566;28;20030;-58
2022/08/24 05:29:20;;;;;;;3.17;2.88;;;18.40;99.90;;;;;;5095235;28;20028;-59
2022/08/24 05:31:46;;;;;;;4.28;3.20;;;18.40;99.90;;;;;;5095405;28;20046;-58
2022/08/24 05:34:12;;;;;;;3.65;3.25;;;18.40;99.90;;;;;;5094187;28;20027;-57
2022/08/24 05:36:39;;;;;;;3.25;2.92;;;18.40;99.90;;;;;;5095234;28;20078;-57
2022/08/24 05:39:11;;;;;;;3.70;3.40;;;18.40;99.90;;;;;;5095622;28;20115;-57
2022/08/24 05:41:39;;;;;;;3.78;3.45;;;18.50;99.90;;;;;;5095335;28;20027;-58
2022/08/24 05:44:05;;;;;;;3.93;3.03;;;18.50;99.90;;;;;;5095282;28;20028;-58
2022/08/24 05:46:31;;;;;;;4.25;3.38;;;18.50;99.90;;;;;;5095038;28;20462;-58
2022/08/24 05:48:58;;;;;;;4.22;3.05;;;18.50;99.90;;;;;;5095178;28;20419;-58
2022/08/24 05:51:24;;;;;;;4.05;3.63;;;18.60;99.90;;;;;;5095380;28;20028;-58
2022/08/24 05:53:50;;;;;;;3.53;3.13;;;18.60;99.90;;;;;;5095244;28;20055;-58
2022/08/24 05:56:17;;;;;;;3.80;3.20;;;18.60;99.90;;;;;;5095512;28;20430;-61
2022/08/24 05:58:43;;;;;;;5.78;3.75;;;18.60;99.90;;;;;;5094980;28;20125;-58
2022/08/24 06:01:13;;;;;;;5.22;3.25;;;18.60;99.90;;;;;;5094942;28;20035;-58
2022/08/24 06:03:39;;;;;;;4.45;3.20;;;18.70;99.90;;;;;;5094345;28;20028;-59
2022/08/24 06:06:06;;;;;;;3.45;3.05;;;18.80;99.90;;;;;;5094833;28;20056;-59
2022/08/24 06:08:37;;;;;;;4.20;2.80;;;18.80;99.90;;;;;;5094662;28;20055;-58
2022/08/24 06:11:03;;;;;;;3.90;2.90;;;18.90;99.90;;;;;;5094481;28;20036;-58
2022/08/24 06:13:30;;;;;;;3.28;2.97;;;18.90;99.90;;;;;;5094999;28;20028;-58
2022/08/24 06:16:22;;;;;;;4.85;3.28;;;19.00;99.90;;;;;;5093466;28;20380;-65
2022/08/24 06:18:49;;;;;;;3.88;2.85;;;19.10;99.90;;;;;;5091687;28;20040;-58
2022/08/24 06:21:18;;;;;;;3.75;2.97;;;19.10;99.90;;;;;;5095276;28;20052;-63
2022/08/24 06:23:44;;;;;;;;;;;19.20;99.90;;;;;;5094988;28;20028;-59
2022/08/24 06:28:56;;;;;;;3.13;2.83;;;19.30;99.90;;;;;;5094494;28;20503;-59
2022/08/24 06:31:23;;;;;;;4.13;2.85;;;19.40;99.90;;;;;;5094154;28;20035;-59
2022/08/24 06:33:49;;;;;;;5.30;3.00;;;19.50;99.90;;;;;;5092247;28;20124;-60
2022/08/24 06:36:14;;;;;;;3.30;3.00;;;19.50;99.90;;;;;;5094651;28;20064;-59
2022/08/24 06:38:40;;;;;;;3.28;3.03;;;19.50;99.90;;;;;;5094285;28;20050;-58
2022/08/24 06:41:06;;;;;;;3.20;2.58;;;19.60;99.90;;;;;;5094247;28;20028;-58
2022/08/24 06:43:32;;;;;;;3.72;2.88;;;19.80;99.90;;;;;;5094269;28;20032;-57
2022/08/24 06:45:58;;;;;;;3.33;2.20;;;19.80;99.90;;;;;;5094123;28;20027;-58
2022/08/24 06:48:24;;;;;;;5.45;2.60;;;19.80;99.90;;;;;;5092868;28;20438;-58
2022/08/24 06:50:51;;;;;;;4.55;2.75;;;19.90;99.90;;;;;;5094059;28;20470;-58
2022/08/24 06:53:18;;;;;;;4.18;3.30;;;19.90;99.90;;;;;;5093631;28;20060;-57
2022/08/24 06:55:56;;;;;;;4.40;3.00;;;20.00;99.90;;;;;;5093752;28;20055;-56
2022/08/24 06:58:23;;;;;;;2.77;2.57;;;20.10;99.90;;;;;;5093823;28;20092;-58
2022/08/24 07:00:49;;;;;;;6.35;3.63;;;20.10;99.90;;;;;;5093878;28;20024;-58
2022/08/24 07:03:15;;;;;;;3.60;2.58;;;20.30;99.90;;;;;;5093702;28;20483;-59
2022/08/24 07:05:52;;;;;;;5.05;2.65;;;20.40;99.90;;;;;;5093550;28;20519;-56
2022/08/24 07:08:19;;;;;;;3.10;2.80;;;20.50;99.90;;;;;;5093566;28;20519;-56
2022/08/24 07:10:45;;;;;;;3.47;2.80;;;20.50;99.90;;;;;;5093870;28;20119;-56
2022/08/24 07:13:12;;;;;;;5.35;3.03;;;20.50;99.90;;;;;;5093733;28;20161;-56
2022/08/24 07:15:38;;;;;;;3.72;2.70;;;20.50;99.90;;;;;;5093848;28;20025;-56
2022/08/24 07:18:08;;;;;;;3.38;3.08;;;20.50;99.90;;;;;;5094015;28;20035;-56
2022/08/24 07:20:37;;;;;;;3.60;2.70;;;20.50;99.90;;;;;;5093906;28;20082;-56
2022/08/24 07:23:06;;;;;;;;;;;20.50;99.90;;;;;;5094194;28;20024;-58
2022/08/24 07:25:33;;;;;;;3.20;2.90;;;20.60;99.90;;;;;;5093696;28;19926;-57
2022/08/24 07:27:59;;;;;;;3.00;2.70;;;20.80;99.90;;;;;;5093465;28;20457;-56
2022/08/24 07:30:26;;;;;;;3.25;2.80;;;20.80;99.90;;;;;;5093657;28;20036;-56
2022/08/24 07:32:52;;;;;;;3.22;2.92;;;20.90;99.90;;;;;;5093690;28;20032;-56
2022/08/24 07:35:18;;;;;;;3.75;2.80;;;21.00;99.90;;;;;;5093614;28;20024;-56
2022/08/24 07:37:44;;;;;;;4.03;3.58;;;21.10;99.90;;;;;;5093470;28;20089;-56
2022/08/24 07:40:10;;;;;;;2.53;2.33;;;21.20;99.90;;;;;;5093211;28;20031;-55
2022/08/24 07:42:35;;;;;;;3.70;2.83;;;21.30;99.90;;;;;;5093968;28;20028;-56
2022/08/24 07:45:02;;;;;;;4.28;2.97;;;21.40;99.90;;;;;;5093259;28;20068;-55
2022/08/24 07:47:28;;;;;;;3.10;2.80;;;21.60;99.90;;;;;;5093511;28;20024;-56
2022/08/24 07:49:53;;;;;;;4.55;2.95;;;21.60;99.90;;;;;;5093561;28;20503;-56
2022/08/24 07:52:19;;;;;;;3.25;2.95;;;21.70;99.90;;;;;;5093420;28;20028;-55
2022/08/24 07:54:45;;;;;;;3.72;3.42;;;22.20;99.90;;;;;;5093526;28;20024;-56
2022/08/24 07:57:11;;;;;;;3.88;2.90;;;22.90;99.90;;;;;;5093414;28;20031;-56
2022/08/24 07:59:37;;;;;;;5.68;3.60;;;23.40;99.90;;;;;;5093332;28;20457;-56
2022/08/24 08:02:03;;;;;;;4.15;3.22;;;23.90;99.90;;;;;;5093380;28;20086;-56
2022/08/24 08:04:31;;;;;;;3.25;2.92;;;24.20;99.90;;;;;;5093454;28;20071;-56
2022/08/24 08:06:57;;;;;;;4.20;3.00;;;24.40;99.90;;;;;;5093512;28;20036;-56
2022/08/24 08:09:23;;;;;;;3.03;2.72;;;24.50;99.90;;;;;;5092987;28;20066;-56
2022/08/24 08:11:48;;;;;;;3.58;3.28;;;24.50;99.90;;;;;;5093220;28;20056;-56
2022/08/24 08:14:14;;;;;;;3.78;3.47;;;24.40;99.90;;;;;;5092927;28;20052;-56
2022/08/24 08:16:40;;;;;;;4.03;3.72;;;23.90;99.90;;;;;;5093296;28;20028;-72
2022/08/24 08:19:06;;;;;;;4.32;3.35;;;23.70;99.90;;;;;;5092202;28;20692;-71
2022/08/24 08:24:19;;;;;;;9.02;3.35;;;23.20;99.90;;;;;;5093159;28;20082;-72
2022/08/24 08:26:51;;;;;;;3.97;3.47;;;23.00;99.90;;;;;;5095762;28;20020;-72
2022/08/24 08:29:18;;;;;;;5.45;3.67;;;22.70;99.90;;;;;;5095104;28;20119;-72
2022/08/24 08:31:44;;;;;;;3.80;3.40;;;22.50;99.90;;;;;;5096672;28;20028;-72
2022/08/24 08:34:11;;;;;;;3.85;3.55;;;22.40;99.90;;;;;;5096678;28;20028;-72
2022/08/24 08:36:39;;;;;;;5.25;3.63;;;22.30;99.90;;;;;;5096632;28;20043;-72
2022/08/24 08:39:10;;;;;;;7.65;4.13;;;22.20;99.90;;;;;;5096600;28;20359;-72
2022/08/24 08:41:50;;;;;;;6.68;4.25;;;22.20;99.90;;;;;;5096833;28;20103;-71
2022/08/24 08:44:36;;;;;;;6.05;3.50;;;22.60;99.90;;;;;;5096527;28;20047;-71
2022/08/24 08:47:24;;;;;;;4.03;2.90;;;23.00;99.90;;;;;;5095149;28;20028;-71
2022/08/24 08:50:13;;;;;;;3.92;3.50;;;23.70;99.90;;;;;;5096494;28;20028;-71
2022/08/24 08:53:06;;;;;;;4.80;4.40;;;24.10;99.90;;;;;;5096213;28;20066;-72
2022/08/24 08:56:02;;;;;;;4.38;3.97;;;24.60;99.90;;;;;;5095837;28;20020;-72
2022/08/24 08:58:42;;;;;;;4.30;3.90;;;24.50;99.90;;;;;;5094690;28;20057;-71
2022/08/24 09:01:40;;;;;;;6.50;3.60;;;24.70;99.90;;;;;;5094796;28;20031;-72
2022/08/24 09:04:28;;;;;;;4.20;3.90;;;25.00;99.90;;;;;;5087865;28;20082;-72
2022/08/24 09:07:27;;;;;;;4.05;3.67;;;25.90;99.90;;;;;;5095342;28;20077;-72
2022/08/24 09:10:02;;;;;;;3.97;3.67;;;26.00;99.90;;;;;;5096177;28;20423;-72
2022/08/24 09:12:51;;;;;;;5.32;3.40;;;25.70;99.90;;;;;;5094706;28;20028;-72
2022/08/24 09:15:17;;;;;;;;;;;25.70;99.90;;;;;;5095012;28;20393;-72
2022/08/24 09:18:05;;;;;;;4.55;3.95;;;25.60;99.90;;;;;;5094602;28;19969;-72
2022/08/24 09:20:49;;;;;;;4.32;3.85;;;26.50;99.90;;;;;;5095874;28;20030;-72
2022/08/24 09:23:52;;;;;;;4.32;4.03;;;26.50;99.90;;;;;;5095759;28;20105;-75
2022/08/24 09:26:28;;;;;;;4.00;3.60;;;26.50;99.90;;;;;;5095983;28;20073;-75
2022/08/24 09:29:12;;;;;;;3.88;3.50;;;26.90;99.90;;;;;;5095230;28;20414;-75
2022/08/24 09:31:47;;;;;;;5.72;3.45;;;27.10;99.90;;;;;;5095290;28;20039;-75
2022/08/24 09:34:32;;;;;;;6.40;3.00;;;27.40;99.90;;;;;;5094355;28;20028;-75
2022/08/24 09:37:03;;;;;;;4.80;3.47;;;27.60;99.90;;;;;;5092867;28;20024;-72
2022/08/24 09:39:41;;;;;;;4.03;3.63;;;26.70;99.90;;;;;;5094996;28;20370;-74
2022/08/24 09:42:15;;;;;;;5.47;3.97;;;26.50;99.90;;;;;;5095573;28;20538;-73
2022/08/24 09:45:09;;;;;;;6.78;4.40;;;26.40;99.90;;;;;;5094617;28;20453;-72
2022/08/24 09:47:46;;;;;;;5.47;3.97;;;26.10;99.90;;;;;;5095471;28;20032;-75
2022/08/24 09:50:15;;;;;;;4.55;4.15;;;26.20;99.90;;;;;;5094236;28;20032;-73
2022/08/24 09:52:49;;;;;;;3.88;3.58;;;26.10;99.90;;;;;;5094080;28;20089;-75
2022/08/24 09:55:49;;;;;;;5.40;4.10;;;26.30;99.90;;;;;;5095212;28;20365;-72
2022/08/24 09:58:29;;;;;;;4.60;4.00;;;26.10;99.90;;;;;;5095019;28;20028;-72
2022/08/24 10:01:07;;;;;;;3.45;2.97;;;26.00;99.90;;;;;;5095348;28;20024;-72
2022/08/24 10:04:10;;;;;;;7.88;3.47;;;26.20;99.90;;;;;;5095530;28;20028;-74
2022/08/24 10:06:54;;;;;;;4.00;3.60;;;26.90;99.90;;;;;;5093730;28;20028;-75
2022/08/24 10:09:40;;;;;;;3.75;3.45;;;27.40;99.60;;;;;;5094942;28;20106;-73
2022/08/24 10:12:12;;;;;;;5.85;3.88;;;27.10;99.90;;;;;;5095146;28;20469;-73
2022/08/24 10:14:37;;;;;;;4.50;4.07;;;26.00;99.90;;;;;;5094677;28;20376;-73
2022/08/24 10:17:52;;;;;;;5.03;3.40;;;26.30;99.90;;;;;;5094761;28;20103;-72
2022/08/24 10:20:24;;;;;;;4.22;3.72;;;27.10;99.90;;;;;;5089473;28;20067;-73
2022/08/24 10:23:19;;;;;;;4.10;3.70;;;28.10;98.70;;;;;;5094690;28;20024;-72
2022/08/24 10:26:01;;;;;;;4.95;3.90;;;28.30;97.80;;;;;;5022913;28;20041;-72
2022/08/24 10:28:42;;;;;;;3.92;3.53;;;28.80;96.70;;;;;;5094523;28;20115;-72
2022/08/24 10:31:13;;;;;;;5.10;3.97;;;28.80;96.20;;;;;;5093286;28;20028;-72
2022/08/24 10:33:58;;;;;;;4.30;4.00;;;28.10;95.70;;;;;;5093299;28;20380;-72
2022/08/24 10:36:43;;;;;;;3.60;3.30;;;27.90;96.30;;;;;;5094256;28;20024;-73
2022/08/24 10:39:44;;;;;;;5.03;3.90;;;27.70;97.00;;;;;;5051781;28;20040;-73
2022/08/24 10:45:46;;;;;;;3.85;3.53;;;26.80;98.50;;;;;;5046984;28;20102;-73
2022/08/24 10:48:30;;;;;;;5.75;3.63;;;26.60;99.10;;;;;;5094147;28;20024;-73
2022/08/24 10:51:11;;;;;;;3.80;3.50;;;27.20;98.90;;;;;;5092668;28;20024;-74
2022/08/24 10:53:37;;;;;;;4.60;4.05;;;27.50;98.10;;;;;;5092560;28;20396;-72
2022/08/24 10:56:04;;;;;;;4.70;4.30;;;27.50;97.70;;;;;;5094330;28;20024;-72
2022/08/24 10:59:01;;;;;;;4.28;3.30;;;28.00;97.70;;;;;;5093046;28;20038;-73
2022/08/24 11:01:35;;;;;;;3.47;3.17;;;28.90;96.60;;;;;;5092587;28;20032;-73
2022/08/24 11:04:05;;;;;;;4.07;3.70;;;29.50;94.70;;;;;;5092641;28;20020;-73
2022/08/24 11:06:38;;;;;;;7.18;3.53;;;29.40;93.40;;;;;;5093278;28;20449;-73
2022/08/24 11:09:14;;;;;;;5.32;3.28;;;28.20;93.60;;;;;;5093935;28;20035;-74
2022/08/24 11:11:44;;;;;;;4.65;3.47;;;27.70;95.70;;;;;;5093978;28;20032;-75
2022/08/24 11:14:26;;;;;;;6.70;3.50;;;28.70;94.30;;;;;;5092652;28;20111;-74
2022/08/24 11:16:52;;;;;;;4.75;3.80;;;29.60;92.50;;;;;;5092763;28;20108;-75
2022/08/24 11:19:32;;;;;;;4.30;3.85;;;29.70;92.00;;;;;;5092655;28;20162;-74
2022/08/24 11:22:02;;;;;;;8.35;3.70;;;30.30;91.80;;;;;;5093752;28;20372;-57
2022/08/24 11:24:38;;;;;;;3.90;3.60;;;30.40;91.20;;;;;;5094032;28;20098;-56
2022/08/24 11:27:33;;;;;;;3.65;3.35;;;31.20;89.80;;;;;;5093960;28;20031;-57
2022/08/24 11:30:10;;;;;;;4.25;3.85;;;31.40;87.10;;;;;;5093368;28;20477;-57
2022/08/24 11:32:43;;;;;;;3.67;3.38;;;30.40;88.60;;;;;;5093362;28;20032;-57
2022/08/24 11:35:44;;;;;;;5.75;3.60;;;29.40;90.50;;;;;;5093575;28;20020;-57
2022/08/24 11:38:19;;;;;;;3.50;3.20;;;28.90;91.50;;;;;;5090116;28;20481;-57
2022/08/24 11:40:54;;;;;;;5.15;3.50;;;28.80;91.40;;;;;;5093798;28;20043;-57
2022/08/24 11:44:06;;;;;;;4.05;3.05;;;29.20;91.90;;;;;;5093283;28;20029;-57
2022/08/24 11:46:45;;;;;;;3.83;3.28;;;30.00;89.70;;;;;;5093429;28;20104;-57
2022/08/24 11:49:21;;;;;;;4.20;3.45;;;29.90;88.80;;;;;;5093712;28;20488;-57
2022/08/24 11:51:55;;;;;;;5.82;3.75;;;30.10;88.70;;;;;;5093446;28;20043;-57
2022/08/24 11:54:41;;;;;;;6.80;3.25;;;30.40;87.10;;;;;;5093142;28;20052;-56
2022/08/24 11:57:24;;;;;;;3.72;3.42;;;30.30;85.60;;;;;;5093458;28;20028;-57
2022/08/24 12:00:13;;;;;;;3.42;3.05;;;31.20;86.30;;;;;;5093416;28;20028;-58
2022/08/24 12:02:53;;;;;;;3.17;2.88;;;32.30;80.40;;;;;;5097253;28;20055;-57
2022/08/24 12:05:25;;;;;;;3.72;3.42;;;31.70;79.50;;;;;;5097212;28;20028;-56
2022/08/24 12:07:50;;;;;;;5.40;3.50;;;30.40;81.50;;;;;;5097146;28;20069;-57
2022/08/24 12:10:37;;;;;;;4.00;3.60;;;29.50;84.10;;;;;;5097066;28;20028;-57
2022/08/24 12:13:36;;;;;;;4.00;3.67;;;28.40;87.90;;;;;;5097176;28;20028;-57
2022/08/24 12:16:29;;;;;;;3.92;3.50;;;27.50;90.80;;;;;;5097062;28;20046;-57
2022/08/24 12:19:13;;;;;;;3.80;3.50;;;27.10;92.70;;;;;;5068158;28;20047;-56
2022/08/24 12:21:44;;;;;;;4.95;3.42;;;27.40;92.80;;;;;;5097590;28;20357;-57
2022/08/24 12:24:39;;;;;;;4.15;3.70;;;28.90;91.30;;;;;;5096858;28;20032;-56
2022/08/24 12:27:34;;;;;;;4.35;3.95;;;29.50;88.80;;;;;;5096681;28;20028;-58
2022/08/24 12:30:13;;;;;;;3.50;3.20;;;30.10;88.30;;;;;;5096809;28;20491;-58
2022/08/24 12:33:05;;;;;;;5.55;3.28;;;31.00;84.10;;;;;;5096829;28;20031;-57
2022/08/24 12:35:51;;;;;;;3.85;3.22;;;31.70;80.30;;;;;;5096011;28;20085;-56
2022/08/24 12:38:41;;;;;;;4.40;3.35;;;31.60;79.80;;;;;;5096736;28;20035;-56
2022/08/24 12:41:17;;;;;;;5.10;3.38;;;31.30;80.20;;;;;;5096504;28;20032;-57
2022/08/24 12:44:01;;;;;;;7.15;3.20;;;30.20;81.40;;;;;;5096682;28;20027;-57
2022/08/24 12:46:26;;;;;;;3.80;3.50;;;29.70;84.60;;;;;;5096808;28;20038;-56
2022/08/24 12:48:58;;;;;;;4.05;3.50;;;29.30;85.90;;;;;;5096399;28;20028;-56
2022/08/24 12:51:48;;;;;;;3.92;3.53;;;29.00;87.50;;;;;;5096390;28;20035;-55
2022/08/24 12:54:23;;;;;;;3.63;3.33;;;28.60;88.90;;;;;;5096481;28;20052;-56
2022/08/24 12:56:57;;;;;;;3.78;3.10;;;28.40;90.50;;;;;;5096144;28;20024;-56
2022/08/24 12:59:45;;;;;;;3.65;3.33;;;28.50;90.40;;;;;;5096345;28;20458;-56
2022/08/24 13:02:14;;;;;;;5.50;3.80;;;28.40;90.90;;;;;;5096213;28;20381;-56
2022/08/24 13:04:43;;;;;;;3.80;3.40;;;27.70;91.10;;;;;;5095854;28;20020;-56
2022/08/24 13:07:18;;;;;;;3.97;3.55;;;27.30;92.20;;;;;;5096078;28;20082;-56
2022/08/24 13:10:24;;;;;;;4.18;3.75;;;26.90;93.00;;;;;;5095999;28;20378;-56
2022/08/24 13:13:07;;;;;;;4.93;3.42;;;26.80;93.80;;;;;;5087890;28;20054;-56
2022/08/24 13:15:36;;;;;;;3.65;3.35;;;27.00;93.90;;;;;;5096016;28;20027;-56
2022/08/24 13:18:07;;;;;;;6.53;3.50;;;27.00;93.70;;;;;;5095774;28;20028;-56
2022/08/24 13:20:36;;;;;;;4.00;3.60;;;27.00;94.10;;;;;;5094465;28;20024;-56
2022/08/24 13:23:04;;;;;;;6.57;3.95;;;27.50;93.50;;;;;;5095212;28;20030;-56
2022/08/24 13:25:56;;;;;;;;;;;27.90;92.40;;;;;;5096115;28;20099;-56
2022/08/24 13:28:22;;;;;;;3.83;3.53;;;28.40;92.20;;;;;;5086806;28;19962;-56
2022/08/24 13:31:06;;;;;;;5.03;3.42;;;29.00;90.60;;;;;;5095339;28;20059;-56
2022/08/24 13:33:52;;;;;;;3.35;3.15;;;29.60;90.20;;;;;;5095636;28;20029;-56